sensor_id;sensor_type;location;lat;lon;timestamp;temperature;humidity
14735;DHT22;7458;49.002;8.472;2023-02-28T00:01:23;1.30;91.00
14735;DHT22;7458;49.002;8.472;2023-02-28T00:03:49;1.30;91.20
14735;DHT22;7458;49.002;8.472;2023-02-28T00:06:15;1.20;91.20
14735;DHT22;7458;49.002;8.472;2023-02-28T00:08:41;1.20;91.50
14735;DHT22;7458;49.002;8.472;2023-02-28T00:11:09;1.20;91.50
14735;DHT22;7458;49.002;8.472;2023-02-28T00:13:38;2.10;91.80
14735;DHT22;7458;49.002;8.472;2023-02-28T00:16:21;1.90;91.80
14735;DHT22;7458;49.002;8.472;2023-02-28T00:18:48;1.20;91.60
14735;DHT22;7458;49.002;8.472;2023-02-28T00:21:15;2.00;91.90
14735;DHT22;7458;49.002;8.472;2023-02-28T00:23:43;1.70;91.90
14735;DHT22;7458;49.002;8.472;2023-02-28T00:26:09;1.10;91.80
14735;DHT22;7458;49.002;8.472;2023-02-28T00:28:35;1.50;91.90
14735;DHT22;7458;49.002;8.472;2023-02-28T00:31:00;1.00;91.80
14735;DHT22;7458;49.002;8.472;2023-02-28T00:33:27;1.00;92.00
14735;DHT22;7458;49.002;8.472;2023-02-28T00:36:04;1.00;92.00
14735;DHT22;7458;49.002;8.472;2023-02-28T00:38:32;1.00;92.00
14735;DHT22;7458;49.002;8.472;2023-02-28T00:40:57;1.10;92.10
14735;DHT22;7458;49.002;8.472;2023-02-28T00:43:23;0.90;92.30
14735;DHT22;7458;49.002;8.472;2023-02-28T00:45:49;0.90;92.30
14735;DHT22;7458;49.002;8.472;2023-02-28T00:48:15;1.30;92.50
14735;DHT22;7458;49.002;8.472;2023-02-28T00:50:41;1.20;92.60
14735;DHT22;7458;49.002;8.472;2023-02-28T00:53:07;1.40;92.70
14735;DHT22;7458;49.002;8.472;2023-02-28T00:55:32;1.10;92.60
14735;DHT22;7458;49.002;8.472;2023-02-28T00:57:58;1.40;92.70
14735;DHT22;7458;49.002;8.472;2023-02-28T01:00:24;0.90;92.60
14735;DHT22;7458;49.002;8.472;2023-02-28T01:02:49;0.90;92.70
14735;DHT22;7458;49.002;8.472;2023-02-28T01:05:15;1.00;92.80
14735;DHT22;7458;49.002;8.472;2023-02-28T01:07:41;1.50;93.10
14735;DHT22;7458;49.002;8.472;2023-02-28T01:10:07;1.30;93.10
14735;DHT22;7458;49.002;8.472;2023-02-28T01:12:33;0.90;93.00
14735;DHT22;7458;49.002;8.472;2023-02-28T01:15:02;0.80;93.10
14735;DHT22;7458;49.002;8.472;2023-02-28T01:17:28;0.80;93.30
14735;DHT22;7458;49.002;8.472;2023-02-28T01:19:54;0.80;93.40
14735;DHT22;7458;49.002;8.472;2023-02-28T01:22:21;0.80;93.40
14735;DHT22;7458;49.002;8.472;2023-02-28T01:24:47;0.80;93.50
14735;DHT22;7458;49.002;8.472;2023-02-28T01:27:13;0.80;93.50
14735;DHT22;7458;49.002;8.472;2023-02-28T01:29:39;1.30;93.80
14735;DHT22;7458;49.002;8.472;2023-02-28T01:32:04;0.80;93.70
14735;DHT22;7458;49.002;8.472;2023-02-28T01:34:30;0.70;93.70
14735;DHT22;7458;49.002;8.472;2023-02-28T01:36:56;0.70;94.00
14735;DHT22;7458;49.002;8.472;2023-02-28T01:39:24;0.80;93.90
14735;DHT22;7458;49.002;8.472;2023-02-28T01:41:51;1.50;94.30
14735;DHT22;7458;49.002;8.472;2023-02-28T01:44:55;1.70;94.50
14735;DHT22;7458;49.002;8.472;2023-02-28T01:47:27;0.60;94.50
14735;DHT22;7458;49.002;8.472;2023-02-28T01:49:57;0.60;94.70
14735;DHT22;7458;49.002;8.472;2023-02-28T01:52:27;0.60;94.80
14735;DHT22;7458;49.002;8.472;2023-02-28T01:54:55;1.20;95.00
14735;DHT22;7458;49.002;8.472;2023-02-28T01:57:29;0.70;94.80
14735;DHT22;7458;49.002;8.472;2023-02-28T02:00:06;0.80;95.10
14735;DHT22;7458;49.002;8.472;2023-02-28T02:02:36;0.70;95.20
14735;DHT22;7458;49.002;8.472;2023-02-28T02:05:07;1.40;95.50
14735;DHT22;7458;49.002;8.472;2023-02-28T02:07:38;0.60;95.40
14735;DHT22;7458;49.002;8.472;2023-02-28T02:10:13;1.00;95.80
14735;DHT22;7458;49.002;8.472;2023-02-28T02:18:50;0.50;96.40
14735;DHT22;7458;49.002;8.472;2023-02-28T02:36:37;0.60;97.50
14735;DHT22;7458;49.002;8.472;2023-02-28T02:39:18;0.60;97.70
14735;DHT22;7458;49.002;8.472;2023-02-28T02:41:54;1.10;97.90
14735;DHT22;7458;49.002;8.472;2023-02-28T02:44:48;0.50;98.10
14735;DHT22;7458;49.002;8.472;2023-02-28T02:47:21;0.50;98.00
14735;DHT22;7458;49.002;8.472;2023-02-28T02:49:55;1.40;98.50
14735;DHT22;7458;49.002;8.472;2023-02-28T02:52:32;0.50;98.40
14735;DHT22;7458;49.002;8.472;2023-02-28T02:55:03;0.50;98.60
14735;DHT22;7458;49.002;8.472;2023-02-28T02:57:54;0.50;98.80
14735;DHT22;7458;49.002;8.472;2023-02-28T03:00:33;0.70;98.80
14735;DHT22;7458;49.002;8.472;2023-02-28T03:03:03;0.50;98.90
14735;DHT22;7458;49.002;8.472;2023-02-28T03:05:45;0.50;99.00
14735;DHT22;7458;49.002;8.472;2023-02-28T03:08:13;0.60;99.20
14735;DHT22;7458;49.002;8.472;2023-02-28T03:10:44;0.50;99.10
14735;DHT22;7458;49.002;8.472;2023-02-28T03:25:14;1.40;99.50
14735;DHT22;7458;49.002;8.472;2023-02-28T03:28:21;0.70;99.30
14735;DHT22;7458;49.002;8.472;2023-02-28T03:31:10;0.80;99.30
14735;DHT22;7458;49.002;8.472;2023-02-28T03:33:47;0.70;99.00
14735;DHT22;7458;49.002;8.472;2023-02-28T03:36:23;0.70;99.60
14735;DHT22;7458;49.002;8.472;2023-02-28T03:39:04;1.00;99.90
14735;DHT22;7458;49.002;8.472;2023-02-28T03:44:51;0.70;99.90
14735;DHT22;7458;49.002;8.472;2023-02-28T03:47:53;0.70;99.90
14735;DHT22;7458;49.002;8.472;2023-02-28T03:50:34;0.80;99.80
14735;DHT22;7458;49.002;8.472;2023-02-28T03:53:36;1.40;99.70
14735;DHT22;7458;49.002;8.472;2023-02-28T03:59:08;0.80;99.90
14735;DHT22;7458;49.002;8.472;2023-02-28T04:01:47;0.80;99.90
14735;DHT22;7458;49.002;8.472;2023-02-28T04:04:14;0.80;99.90
14735;DHT22;7458;49.002;8.472;2023-02-28T04:06:43;0.80;99.90
14735;DHT22;7458;49.002;8.472;2023-02-28T04:09:12;0.70;99.90
14735;DHT22;7458;49.002;8.472;2023-02-28T04:11:58;1.30;99.90
14735;DHT22;7458;49.002;8.472;2023-02-28T04:14:25;0.80;99.90
14735;DHT22;7458;49.002;8.472;2023-02-28T04:16:51;0.80;99.90
14735;DHT22;7458;49.002;8.472;2023-02-28T04:19:17;0.70;99.90
14735;DHT22;7458;49.002;8.472;2023-02-28T04:21:46;0.70;99.90
14735;DHT22;7458;49.002;8.472;2023-02-28T04:24:16;1.30;99.90
14735;DHT22;7458;49.002;8.472;2023-02-28T04:26:46;0.80;99.90
14735;DHT22;7458;49.002;8.472;2023-02-28T04:29:17;0.70;99.90
14735;DHT22;7458;49.002;8.472;2023-02-28T04:31:45;1.20;99.90
14735;DHT22;7458;49.002;8.472;2023-02-28T04:34:10;0.80;99.90
14735;DHT22;7458;49.002;8.472;2023-02-28T04:36:36;0.70;99.90
14735;DHT22;7458;49.002;8.472;2023-02-28T04:39:02;0.70;99.90
14735;DHT22;7458;49.002;8.472;2023-02-28T04:41:29;0.70;99.90
14735;DHT22;7458;49.002;8.472;2023-02-28T04:43:55;0.70;99.90
14735;DHT22;7458;49.002;8.472;2023-02-28T04:46:22;1.50;99.90
14735;DHT22;7458;49.002;8.472;2023-02-28T04:48:48;1.30;99.90
14735;DHT22;7458;49.002;8.472;2023-02-28T04:51:17;0.50;99.90
14735;DHT22;7458;49.002;8.472;2023-02-28T04:53:44;0.50;99.90
14735;DHT22;7458;49.002;8.472;2023-02-28T04:56:15;0.50;99.90
14735;DHT22;7458;49.002;8.472;2023-02-28T04:58:42;0.50;99.90
14735;DHT22;7458;49.002;8.472;2023-02-28T05:03:56;0.50;99.90
14735;DHT22;7458;49.002;8.472;2023-02-28T05:06:25;0.50;99.90
14735;DHT22;7458;49.002;8.472;2023-02-28T05:08:52;0.50;99.90
14735;DHT22;7458;49.002;8.472;2023-02-28T05:11:29;0.40;99.90
14735;DHT22;7458;49.002;8.472;2023-02-28T05:14:05;1.70;99.90
14735;DHT22;7458;49.002;8.472;2023-02-28T05:16:33;0.30;99.90
14735;DHT22;7458;49.002;8.472;2023-02-28T05:18:59;0.40;99.90
14735;DHT22;7458;49.002;8.472;2023-02-28T05:21:28;0.40;99.90
14735;DHT22;7458;49.002;8.472;2023-02-28T05:24:04;0.20;99.90
14735;DHT22;7458;49.002;8.472;2023-02-28T05:26:38;0.70;99.90
14735;DHT22;7458;49.002;8.472;2023-02-28T05:29:06;0.50;99.90
14735;DHT22;7458;49.002;8.472;2023-02-28T05:31:32;1.20;99.90
14735;DHT22;7458;49.002;8.472;2023-02-28T05:33:58;0.40;99.90
14735;DHT22;7458;49.002;8.472;2023-02-28T05:36:24;0.40;99.90
14735;DHT22;7458;49.002;8.472;2023-02-28T05:38:51;0.40;99.90
14735;DHT22;7458;49.002;8.472;2023-02-28T05:41:18;1.10;99.90
14735;DHT22;7458;49.002;8.472;2023-02-28T05:43:45;2.20;99.90
14735;DHT22;7458;49.002;8.472;2023-02-28T05:46:13;0.90;99.90
14735;DHT22;7458;49.002;8.472;2023-02-28T05:48:40;0.90;99.90
14735;DHT22;7458;49.002;8.472;2023-02-28T05:51:08;0.40;99.90
14735;DHT22;7458;49.002;8.472;2023-02-28T05:53:35;0.80;99.90
14735;DHT22;7458;49.002;8.472;2023-02-28T05:56:01;0.30;99.90
14735;DHT22;7458;49.002;8.472;2023-02-28T05:58:27;1.50;99.90
14735;DHT22;7458;49.002;8.472;2023-02-28T06:00:59;0.40;99.90
14735;DHT22;7458;49.002;8.472;2023-02-28T06:03:27;0.50;99.90
14735;DHT22;7458;49.002;8.472;2023-02-28T06:05:53;0.60;99.90
14735;DHT22;7458;49.002;8.472;2023-02-28T06:08:19;0.50;99.90
14735;DHT22;7458;49.002;8.472;2023-02-28T06:10:45;0.90;99.90
14735;DHT22;7458;49.002;8.472;2023-02-28T06:13:11;0.40;99.90
14735;DHT22;7458;49.002;8.472;2023-02-28T06:15:38;0.40;99.90
14735;DHT22;7458;49.002;8.472;2023-02-28T06:18:04;0.40;99.90
14735;DHT22;7458;49.002;8.472;2023-02-28T06:20:30;0.40;99.90
14735;DHT22;7458;49.002;8.472;2023-02-28T06:22:57;0.50;99.90
14735;DHT22;7458;49.002;8.472;2023-02-28T06:25:26;0.40;99.90
14735;DHT22;7458;49.002;8.472;2023-02-28T06:27:53;0.50;99.90
14735;DHT22;7458;49.002;8.472;2023-02-28T06:30:19;0.50;99.90
14735;DHT22;7458;49.002;8.472;2023-02-28T06:32:49;0.60;99.90
14735;DHT22;7458;49.002;8.472;2023-02-28T06:35:15;0.90;99.90
14735;DHT22;7458;49.002;8.472;2023-02-28T06:37:41;0.60;99.90
14735;DHT22;7458;49.002;8.472;2023-02-28T06:40:09;0.60;99.90
14735;DHT22;7458;49.002;8.472;2023-02-28T06:42:35;0.90;99.90
14735;DHT22;7458;49.002;8.472;2023-02-28T06:45:02;2.40;99.90
14735;DHT22;7458;49.002;8.472;2023-02-28T06:47:34;0.90;99.90
14735;DHT22;7458;49.002;8.472;2023-02-28T06:50:02;1.90;99.90
14735;DHT22;7458;49.002;8.472;2023-02-28T06:52:28;0.80;99.90
14735;DHT22;7458;49.002;8.472;2023-02-28T06:54:53;0.90;99.90
14735;DHT22;7458;49.002;8.472;2023-02-28T06:57:27;1.20;99.90
14735;DHT22;7458;49.002;8.472;2023-02-28T06:59:59;1.70;99.90
14735;DHT22;7458;49.002;8.472;2023-02-28T07:02:27;0.90;99.90
14735;DHT22;7458;49.002;8.472;2023-02-28T07:04:53;1.00;99.90
14735;DHT22;7458;49.002;8.472;2023-02-28T07:07:18;1.00;99.90
14735;DHT22;7458;49.002;8.472;2023-02-28T07:09:44;1.10;99.90
14735;DHT22;7458;49.002;8.472;2023-02-28T07:12:10;1.30;99.90
14735;DHT22;7458;49.002;8.472;2023-02-28T07:14:37;1.10;99.90
14735;DHT22;7458;49.002;8.472;2023-02-28T07:17:02;1.10;99.90
14735;DHT22;7458;49.002;8.472;2023-02-28T07:19:28;1.10;99.90
14735;DHT22;7458;49.002;8.472;2023-02-28T07:21:54;1.40;99.90
14735;DHT22;7458;49.002;8.472;2023-02-28T07:24:20;1.20;99.90
14735;DHT22;7458;49.002;8.472;2023-02-28T07:26:46;1.20;99.90
14735;DHT22;7458;49.002;8.472;2023-02-28T07:29:12;1.20;99.90
14735;DHT22;7458;49.002;8.472;2023-02-28T07:31:37;2.20;99.90
14735;DHT22;7458;49.002;8.472;2023-02-28T07:34:03;4.60;99.90
14735;DHT22;7458;49.002;8.472;2023-02-28T07:36:29;3.40;99.90
14735;DHT22;7458;49.002;8.472;2023-02-28T07:38:54;2.50;99.90
14735;DHT22;7458;49.002;8.472;2023-02-28T07:41:21;2.10;99.90
14735;DHT22;7458;49.002;8.472;2023-02-28T07:43:48;2.00;99.90
14735;DHT22;7458;49.002;8.472;2023-02-28T07:46:16;1.80;99.90
14735;DHT22;7458;49.002;8.472;2023-02-28T07:48:43;1.90;99.90
14735;DHT22;7458;49.002;8.472;2023-02-28T07:51:09;-0.40;99.90
14735;DHT22;7458;49.002;8.472;2023-02-28T07:53:35;1.60;99.90
14735;DHT22;7458;49.002;8.472;2023-02-28T07:56:02;1.70;99.90
14735;DHT22;7458;49.002;8.472;2023-02-28T07:58:30;1.60;99.90
14735;DHT22;7458;49.002;8.472;2023-02-28T08:00:56;1.50;99.90
14735;DHT22;7458;49.002;8.472;2023-02-28T08:03:23;1.50;99.90
14735;DHT22;7458;49.002;8.472;2023-02-28T08:05:50;1.50;99.90
14735;DHT22;7458;49.002;8.472;2023-02-28T08:08:17;1.50;99.90
14735;DHT22;7458;49.002;8.472;2023-02-28T08:10:43;1.90;99.90
14735;DHT22;7458;49.002;8.472;2023-02-28T08:13:09;1.50;99.90
14735;DHT22;7458;49.002;8.472;2023-02-28T08:15:35;1.50;99.90
14735;DHT22;7458;49.002;8.472;2023-02-28T08:18:04;1.60;99.90
14735;DHT22;7458;49.002;8.472;2023-02-28T08:20:30;1.60;99.90
14735;DHT22;7458;49.002;8.472;2023-02-28T08:22:56;1.70;99.90
14735;DHT22;7458;49.002;8.472;2023-02-28T08:25:21;1.70;99.90
14735;DHT22;7458;49.002;8.472;2023-02-28T08:27:47;1.70;99.90
14735;DHT22;7458;49.002;8.472;2023-02-28T08:30:15;1.80;99.90
14735;DHT22;7458;49.002;8.472;2023-02-28T08:32:41;1.80;99.90
14735;DHT22;7458;49.002;8.472;2023-02-28T08:35:07;1.80;99.90
14735;DHT22;7458;49.002;8.472;2023-02-28T08:37:34;1.90;99.90
14735;DHT22;7458;49.002;8.472;2023-02-28T08:40:00;1.90;99.90
14735;DHT22;7458;49.002;8.472;2023-02-28T08:42:26;2.00;99.90
14735;DHT22;7458;49.002;8.472;2023-02-28T08:44:52;2.10;99.90
14735;DHT22;7458;49.002;8.472;2023-02-28T08:47:18;2.20;99.90
14735;DHT22;7458;49.002;8.472;2023-02-28T08:49:44;2.30;99.90
14735;DHT22;7458;49.002;8.472;2023-02-28T08:52:09;2.60;99.90
14735;DHT22;7458;49.002;8.472;2023-02-28T08:54:36;2.40;99.90
14735;DHT22;7458;49.002;8.472;2023-02-28T08:57:02;2.70;99.90
14735;DHT22;7458;49.002;8.472;2023-02-28T08:59:29;2.50;99.90
14735;DHT22;7458;49.002;8.472;2023-02-28T09:01:55;3.30;99.90
14735;DHT22;7458;49.002;8.472;2023-02-28T09:04:21;2.60;99.80
14735;DHT22;7458;49.002;8.472;2023-02-28T09:06:47;2.70;99.90
14735;DHT22;7458;49.002;8.472;2023-02-28T09:09:14;2.80;99.60
14735;DHT22;7458;49.002;8.472;2023-02-28T09:11:40;2.90;99.40
14735;DHT22;7458;49.002;8.472;2023-02-28T09:14:06;3.50;99.40
14735;DHT22;7458;49.002;8.472;2023-02-28T09:16:33;3.00;99.00
14735;DHT22;7458;49.002;8.472;2023-02-28T09:19:01;3.10;98.60
14735;DHT22;7458;49.002;8.472;2023-02-28T09:21:27;3.10;98.50
14735;DHT22;7458;49.002;8.472;2023-02-28T09:23:53;3.10;98.20
14735;DHT22;7458;49.002;8.472;2023-02-28T09:26:27;3.30;97.40
14735;DHT22;7458;49.002;8.472;2023-02-28T09:28:53;3.50;97.50
14735;DHT22;7458;49.002;8.472;2023-02-28T09:31:23;3.50;96.90
14735;DHT22;7458;49.002;8.472;2023-02-28T09:33:52;3.50;96.60
14735;DHT22;7458;49.002;8.472;2023-02-28T09:36:20;3.60;96.30
14735;DHT22;7458;49.002;8.472;2023-02-28T09:38:46;3.80;96.20
14735;DHT22;7458;49.002;8.472;2023-02-28T09:41:42;3.90;95.70
14735;DHT22;7458;49.002;8.472;2023-02-28T09:44:30;4.10;95.10
14735;DHT22;7458;49.002;8.472;2023-02-28T09:49:59;4.80;99.90
14735;DHT22;7458;49.002;8.472;2023-02-28T09:52:56;4.50;95.00
14735;DHT22;7458;49.002;8.472;2023-02-28T09:55:51;4.40;94.00
14735;DHT22;7458;49.002;8.472;2023-02-28T09:58:33;4.30;93.50
14735;DHT22;7458;49.002;8.472;2023-02-28T10:01:31;4.50;93.50
14735;DHT22;7458;49.002;8.472;2023-02-28T10:04:10;5.00;92.80
14735;DHT22;7458;49.002;8.472;2023-02-28T10:06:49;4.90;91.40
14735;DHT22;7458;49.002;8.472;2023-02-28T10:09:23;4.90;91.30
14735;DHT22;7458;49.002;8.472;2023-02-28T10:11:54;4.90;90.80
14735;DHT22;7458;49.002;8.472;2023-02-28T10:14:28;5.10;93.30
14735;DHT22;7458;49.002;8.472;2023-02-28T10:17:16;5.00;91.10
14735;DHT22;7458;49.002;8.472;2023-02-28T10:22:23;5.70;90.90
14735;DHT22;7458;49.002;8.472;2023-02-28T10:24:55;5.30;90.10
14735;DHT22;7458;49.002;8.472;2023-02-28T10:27:31;5.00;90.00
14735;DHT22;7458;49.002;8.472;2023-02-28T10:30:02;4.80;90.10
14735;DHT22;7458;49.002;8.472;2023-02-28T10:32:33;4.70;90.40
14735;DHT22;7458;49.002;8.472;2023-02-28T10:35:14;4.60;90.50
14735;DHT22;7458;49.002;8.472;2023-02-28T10:37:44;4.60;90.30
14735;DHT22;7458;49.002;8.472;2023-02-28T10:40:28;4.50;90.40
14735;DHT22;7458;49.002;8.472;2023-02-28T10:45:34;4.40;90.70
14735;DHT22;7458;49.002;8.472;2023-02-28T10:50:51;4.30;91.20
14735;DHT22;7458;49.002;8.472;2023-02-28T10:58:55;4.40;92.20
14735;DHT22;7458;49.002;8.472;2023-02-28T11:01:45;4.20;91.80
14735;DHT22;7458;49.002;8.472;2023-02-28T11:07:17;4.20;92.00
14735;DHT22;7458;49.002;8.472;2023-02-28T11:09:48;4.30;91.90
14735;DHT22;7458;49.002;8.472;2023-02-28T11:12:37;4.50;91.80
14735;DHT22;7458;49.002;8.472;2023-02-28T11:15:19;4.50;91.50
14735;DHT22;7458;49.002;8.472;2023-02-28T11:17:56;4.60;91.00
14735;DHT22;7458;49.002;8.472;2023-02-28T11:20:25;4.60;91.20
14735;DHT22;7458;49.002;8.472;2023-02-28T11:22:55;4.50;90.90
14735;DHT22;7458;49.002;8.472;2023-02-28T11:25:23;4.60;90.60
14735;DHT22;7458;49.002;8.472;2023-02-28T11:27:54;4.80;90.80
14735;DHT22;7458;49.002;8.472;2023-02-28T11:30:26;4.70;90.70
14735;DHT22;7458;49.002;8.472;2023-02-28T11:32:53;4.80;90.30
14735;DHT22;7458;49.002;8.472;2023-02-28T11:35:33;5.00;90.10
14735;DHT22;7458;49.002;8.472;2023-02-28T11:38:04;5.00;90.20
14735;DHT22;7458;49.002;8.472;2023-02-28T11:46:47;5.40;86.50
14735;DHT22;7458;49.002;8.472;2023-02-28T11:55:39;5.90;82.40
14735;DHT22;7458;49.002;8.472;2023-02-28T12:01:38;5.80;80.70
14735;DHT22;7458;49.002;8.472;2023-02-28T12:08:10;5.50;81.10
14735;DHT22;7458;49.002;8.472;2023-02-28T12:14:05;5.60;80.90
14735;DHT22;7458;49.002;8.472;2023-02-28T12:25:15;5.60;81.20
14735;DHT22;7458;49.002;8.472;2023-02-28T12:27:48;6.00;79.80
14735;DHT22;7458;49.002;8.472;2023-02-28T12:30:25;6.10;78.90
14735;DHT22;7458;49.002;8.472;2023-02-28T12:33:09;6.40;78.50
14735;DHT22;7458;49.002;8.472;2023-02-28T12:36:09;6.50;77.30
14735;DHT22;7458;49.002;8.472;2023-02-28T12:38:44;6.40;77.40
14735;DHT22;7458;49.002;8.472;2023-02-28T12:41:22;6.40;77.20
14735;DHT22;7458;49.002;8.472;2023-02-28T12:44:12;6.30;77.80
14735;DHT22;7458;49.002;8.472;2023-02-28T12:46:47;6.10;76.90
14735;DHT22;7458;49.002;8.472;2023-02-28T12:49:17;6.00;77.50
14735;DHT22;7458;49.002;8.472;2023-02-28T12:51:47;6.20;77.00
14735;DHT22;7458;49.002;8.472;2023-02-28T12:54:22;6.10;76.80
14735;DHT22;7458;49.002;8.472;2023-02-28T12:57:02;6.20;77.30
14735;DHT22;7458;49.002;8.472;2023-02-28T13:05:26;6.40;76.40
14735;DHT22;7458;49.002;8.472;2023-02-28T13:11:29;6.80;76.30
14735;DHT22;7458;49.002;8.472;2023-02-28T13:14:05;6.60;75.50
14735;DHT22;7458;49.002;8.472;2023-02-28T13:16:59;6.70;76.50
14735;DHT22;7458;49.002;8.472;2023-02-28T13:19:31;7.50;82.20
14735;DHT22;7458;49.002;8.472;2023-02-28T13:22:00;7.20;76.70
14735;DHT22;7458;49.002;8.472;2023-02-28T13:24:41;7.10;75.70
14735;DHT22;7458;49.002;8.472;2023-02-28T13:29:39;6.70;75.20
14735;DHT22;7458;49.002;8.472;2023-02-28T13:34:37;6.50;75.20
14735;DHT22;7458;49.002;8.472;2023-02-28T13:47:40;6.10;77.90
14735;DHT22;7458;49.002;8.472;2023-02-28T13:56:01;8.70;79.40
14735;DHT22;7458;49.002;8.472;2023-02-28T13:58:40;6.60;77.30
14735;DHT22;7458;49.002;8.472;2023-02-28T14:04:41;6.60;75.70
14735;DHT22;7458;49.002;8.472;2023-02-28T14:07:28;6.40;76.80
14735;DHT22;7458;49.002;8.472;2023-02-28T14:10:04;6.30;77.40
14735;DHT22;7458;49.002;8.472;2023-02-28T14:13:00;6.00;77.20
14735;DHT22;7458;49.002;8.472;2023-02-28T14:15:44;6.00;78.10
14735;DHT22;7458;49.002;8.472;2023-02-28T14:18:29;6.10;78.20
14735;DHT22;7458;49.002;8.472;2023-02-28T14:21:11;6.00;78.40
14735;DHT22;7458;49.002;8.472;2023-02-28T14:24:06;5.90;77.80
14735;DHT22;7458;49.002;8.472;2023-02-28T14:27:04;6.00;78.10
14735;DHT22;7458;49.002;8.472;2023-02-28T14:29:42;6.00;77.60
14735;DHT22;7458;49.002;8.472;2023-02-28T14:37:51;6.20;77.00
14735;DHT22;7458;49.002;8.472;2023-02-28T14:43:16;6.20;77.30
14735;DHT22;7458;49.002;8.472;2023-02-28T14:45:54;6.20;77.40
14735;DHT22;7458;49.002;8.472;2023-02-28T14:48:23;6.40;77.20
14735;DHT22;7458;49.002;8.472;2023-02-28T14:50:58;6.60;77.30
14735;DHT22;7458;49.002;8.472;2023-02-28T14:53:27;6.70;76.30
14735;DHT22;7458;49.002;8.472;2023-02-28T14:55:55;6.70;76.90
14735;DHT22;7458;49.002;8.472;2023-02-28T14:58:30;6.60;76.30
14735;DHT22;7458;49.002;8.472;2023-02-28T15:00:59;6.40;75.60
14735;DHT22;7458;49.002;8.472;2023-02-28T15:03:33;6.40;77.30
14735;DHT22;7458;49.002;8.472;2023-02-28T15:06:01;6.20;76.50
14735;DHT22;7458;49.002;8.472;2023-02-28T15:08:30;6.20;77.60
14735;DHT22;7458;49.002;8.472;2023-02-28T15:11:09;6.20;77.80
14735;DHT22;7458;49.002;8.472;2023-02-28T15:13:47;6.20;77.70
14735;DHT22;7458;49.002;8.472;2023-02-28T15:19:02;6.30;77.50
14735;DHT22;7458;49.002;8.472;2023-02-28T15:21:38;6.30;78.40
14735;DHT22;7458;49.002;8.472;2023-02-28T15:24:22;6.20;77.00
14735;DHT22;7458;49.002;8.472;2023-02-28T15:27:04;6.20;77.40
14735;DHT22;7458;49.002;8.472;2023-02-28T15:29:49;6.30;78.80
14735;DHT22;7458;49.002;8.472;2023-02-28T15:32:29;6.20;77.50
14735;DHT22;7458;49.002;8.472;2023-02-28T15:34:57;6.30;77.70
14735;DHT22;7458;49.002;8.472;2023-02-28T15:37:40;6.30;77.60
14735;DHT22;7458;49.002;8.472;2023-02-28T15:40:18;6.30;77.20
14735;DHT22;7458;49.002;8.472;2023-02-28T15:43:06;6.30;76.80
14735;DHT22;7458;49.002;8.472;2023-02-28T15:45:38;6.20;76.50
14735;DHT22;7458;49.002;8.472;2023-02-28T15:48:30;6.20;76.20
14735;DHT22;7458;49.002;8.472;2023-02-28T15:53:48;6.10;77.20
14735;DHT22;7458;49.002;8.472;2023-02-28T15:56:31;6.10;76.80
14735;DHT22;7458;49.002;8.472;2023-02-28T15:59:02;6.10;77.10
14735;DHT22;7458;49.002;8.472;2023-02-28T16:01:33;6.10;77.20
14735;DHT22;7458;49.002;8.472;2023-02-28T16:04:04;6.00;76.90
14735;DHT22;7458;49.002;8.472;2023-02-28T16:09:25;5.90;77.80
14735;DHT22;7458;49.002;8.472;2023-02-28T16:11:55;5.90;78.50
14735;DHT22;7458;49.002;8.472;2023-02-28T16:14:24;5.90;77.90
14735;DHT22;7458;49.002;8.472;2023-02-28T16:16:55;5.90;78.20
14735;DHT22;7458;49.002;8.472;2023-02-28T16:19:27;5.90;78.60
14735;DHT22;7458;49.002;8.472;2023-02-28T16:21:53;5.90;78.80
14735;DHT22;7458;49.002;8.472;2023-02-28T16:24:19;5.90;78.60
14735;DHT22;7458;49.002;8.472;2023-02-28T16:26:48;5.80;78.50
14735;DHT22;7458;49.002;8.472;2023-02-28T16:29:28;5.90;79.30
14735;DHT22;7458;49.002;8.472;2023-02-28T16:31:59;5.80;78.60
14735;DHT22;7458;49.002;8.472;2023-02-28T16:34:26;5.70;78.90
14735;DHT22;7458;49.002;8.472;2023-02-28T16:36:52;5.70;79.20
14735;DHT22;7458;49.002;8.472;2023-02-28T16:39:18;5.70;79.00
14735;DHT22;7458;49.002;8.472;2023-02-28T16:41:47;5.60;79.40
14735;DHT22;7458;49.002;8.472;2023-02-28T16:44:28;5.60;79.10
14735;DHT22;7458;49.002;8.472;2023-02-28T16:46:56;5.60;79.90
14735;DHT22;7458;49.002;8.472;2023-02-28T16:49:25;5.50;79.20
14735;DHT22;7458;49.002;8.472;2023-02-28T16:51:51;5.50;79.90
14735;DHT22;7458;49.002;8.472;2023-02-28T16:54:16;5.40;79.70
14735;DHT22;7458;49.002;8.472;2023-02-28T16:56:44;5.50;79.90
14735;DHT22;7458;49.002;8.472;2023-02-28T16:59:13;5.30;79.90
14735;DHT22;7458;49.002;8.472;2023-02-28T17:01:43;5.40;81.90
14735;DHT22;7458;49.002;8.472;2023-02-28T17:04:10;5.30;80.90
14735;DHT22;7458;49.002;8.472;2023-02-28T17:06:37;5.30;80.90
14735;DHT22;7458;49.002;8.472;2023-02-28T17:09:03;5.20;82.10
14735;DHT22;7458;49.002;8.472;2023-02-28T17:11:28;5.20;81.80
14735;DHT22;7458;49.002;8.472;2023-02-28T17:13:54;5.20;82.00
14735;DHT22;7458;49.002;8.472;2023-02-28T17:16:28;5.20;81.80
14735;DHT22;7458;49.002;8.472;2023-02-28T17:19:02;5.10;81.90
14735;DHT22;7458;49.002;8.472;2023-02-28T17:21:30;5.00;82.00
14735;DHT22;7458;49.002;8.472;2023-02-28T17:23:57;5.00;82.10
14735;DHT22;7458;49.002;8.472;2023-02-28T17:26:24;5.10;82.80
14735;DHT22;7458;49.002;8.472;2023-02-28T17:28:51;5.00;82.80
14735;DHT22;7458;49.002;8.472;2023-02-28T17:31:20;4.90;83.10
14735;DHT22;7458;49.002;8.472;2023-02-28T17:33:45;4.90;83.20
14735;DHT22;7458;49.002;8.472;2023-02-28T17:36:17;5.20;83.40
14735;DHT22;7458;49.002;8.472;2023-02-28T17:38:48;4.80;84.00
14735;DHT22;7458;49.002;8.472;2023-02-28T17:41:14;4.80;84.10
14735;DHT22;7458;49.002;8.472;2023-02-28T17:43:40;4.70;84.50
14735;DHT22;7458;49.002;8.472;2023-02-28T17:46:19;4.70;84.40
14735;DHT22;7458;49.002;8.472;2023-02-28T17:48:48;4.60;84.50
14735;DHT22;7458;49.002;8.472;2023-02-28T17:51:15;4.60;84.60
14735;DHT22;7458;49.002;8.472;2023-02-28T17:53:41;4.60;84.80
14735;DHT22;7458;49.002;8.472;2023-02-28T17:56:18;4.50;84.80
14735;DHT22;7458;49.002;8.472;2023-02-28T17:58:47;4.60;85.20
14735;DHT22;7458;49.002;8.472;2023-02-28T18:01:13;4.60;85.30
14735;DHT22;7458;49.002;8.472;2023-02-28T18:03:39;4.60;85.00
14735;DHT22;7458;49.002;8.472;2023-02-28T18:06:05;4.70;92.70
14735;DHT22;7458;49.002;8.472;2023-02-28T18:08:32;4.80;86.90
14735;DHT22;7458;49.002;8.472;2023-02-28T18:11:00;4.70;85.40
14735;DHT22;7458;49.002;8.472;2023-02-28T18:13:26;4.60;85.30
14735;DHT22;7458;49.002;8.472;2023-02-28T18:15:55;4.70;85.30
14735;DHT22;7458;49.002;8.472;2023-02-28T18:18:20;4.80;85.50
14735;DHT22;7458;49.002;8.472;2023-02-28T18:20:46;4.50;85.20
14735;DHT22;7458;49.002;8.472;2023-02-28T18:23:15;4.40;85.30
14735;DHT22;7458;49.002;8.472;2023-02-28T18:25:42;4.40;85.50
14735;DHT22;7458;49.002;8.472;2023-02-28T18:28:08;4.40;85.90
14735;DHT22;7458;49.002;8.472;2023-02-28T18:30:36;4.30;85.90
14735;DHT22;7458;49.002;8.472;2023-02-28T18:33:02;4.30;86.00
14735;DHT22;7458;49.002;8.472;2023-02-28T18:35:29;4.20;86.10
14735;DHT22;7458;49.002;8.472;2023-02-28T18:38:16;4.30;86.10
14735;DHT22;7458;49.002;8.472;2023-02-28T18:40:57;4.30;86.40
14735;DHT22;7458;49.002;8.472;2023-02-28T18:43:26;4.20;86.40
14735;DHT22;7458;49.002;8.472;2023-02-28T18:45:53;4.30;94.30
14735;DHT22;7458;49.002;8.472;2023-02-28T18:48:19;8.10;99.90
14735;DHT22;7458;49.002;8.472;2023-02-28T18:50:48;6.80;91.90
14735;DHT22;7458;49.002;8.472;2023-02-28T18:53:14;6.60;96.20